Time;durP1;ratioP1;P1;durP2;ratioP2;P2;SDS_P1;SDS_P2;PMS_P1;PMS_P2;Temp;Humidity;BMP_temperature;BMP_pressure;BME280_temperature;BME280_humidity;BME280_pressure;Samples;Min_cycle;Max_cycle;Signal;HPM_P1;HPM_P2
2022/11/16 00:02:13;;;;;;;12.70;7.57;;;;;;;7.31;100.00;92727.41;4896207;29;20510;-56
2022/11/16 00:04:40;;;;;;;13.77;7.85;;;;;;;7.34;100.00;92723.81;4896296;29;20048;-57
2022/11/16 00:07:07;;;;;;;13.63;7.73;;;;;;;7.33;100.00;92716.81;4896045;29;20057;-56
2022/11/16 00:09:34;;;;;;;14.55;7.90;;;;;;;7.31;100.00;92713.75;4896772;29;20056;-52
2022/11/16 00:12:04;;;;;;;12.43;7.07;;;;;;;7.35;100.00;92707.03;4895826;29;20078;-56
2022/11/16 00:14:34;;;;;;;12.88;7.32;;;;;;;7.30;100.00;92709.47;4896592;29;20131;-55
2022/11/16 00:17:02;;;;;;;33.70;18.85;;;;;;;7.34;100.00;92704.72;4895834;29;20044;-57
2022/11/16 00:19:29;;;;;;;35.43;18.23;;;;;;;7.36;100.00;92707.78;4896796;29;20494;-54
2022/11/16 00:21:55;;;;;;;15.43;9.13;;;;;;;7.35;100.00;92709.00;4895362;29;20048;-53
2022/11/16 00:24:22;;;;;;;15.10;9.07;;;;;;;7.32;100.00;92709.81;4896561;29;20057;-57
2022/11/16 00:26:51;;;;;;;19.60;9.70;;;;;;;7.16;100.00;92711.34;4896023;29;20045;-54
2022/11/16 00:29:20;;;;;;;20.38;10.75;;;;;;;7.10;100.00;92709.53;4896109;29;20580;-57
2022/11/16 00:31:48;;;;;;;16.90;9.90;;;;;;;7.02;100.00;92705.41;4895633;29;20056;-55
2022/11/16 00:34:15;;;;;;;17.05;9.38;;;;;;;7.03;100.00;92710.44;4895672;29;20055;-55
2022/11/16 00:36:42;;;;;;;17.35;9.50;;;;;;;7.12;100.00;92701.69;4895824;29;20040;-55
2022/11/16 00:39:11;;;;;;;16.30;9.05;;;;;;;7.23;100.00;92710.41;4896438;29;20048;-55
2022/11/16 00:41:38;;;;;;;16.27;9.73;;;;;;;7.13;100.00;92709.44;4900629;29;20500;-57
2022/11/16 00:44:04;;;;;;;16.53;9.20;;;;;;;7.15;100.00;92712.53;4894631;29;20056;-55
2022/11/16 00:46:31;;;;;;;17.20;9.82;;;;;;;7.15;100.00;92712.53;4895913;29;20063;-53
2022/11/16 00:48:58;;;;;;;14.73;8.63;;;;;;;7.10;100.00;92715.78;4895278;29;20099;-54
2022/11/16 00:51:24;;;;;;;14.15;8.13;;;;;;;7.21;100.00;92710.06;4895683;29;20056;-57
2022/11/16 00:53:51;;;;;;;15.77;9.10;;;;;;;7.16;100.00;92705.88;4894716;29;20052;-54
2022/11/16 00:56:18;;;;;;;15.73;8.57;;;;;;;7.13;100.00;92705.97;4895735;29;20107;-56
2022/11/16 00:58:44;;;;;;;14.52;8.20;;;;;;;7.26;100.00;92712.28;4895007;29;20056;-56
2022/11/16 01:01:12;;;;;;;13.93;7.85;;;;;;;7.28;100.00;92704.44;4895325;29;20160;-56
2022/11/16 01:03:39;;;;;;;15.25;8.43;;;;;;;7.22;100.00;92699.91;4894210;29;20045;-56
2022/11/16 01:06:08;;;;;;;15.52;8.45;;;;;;;7.14;100.00;92705.53;4878457;29;20096;-53
2022/11/16 01:08:36;;;;;;;17.20;8.80;;;;;;;7.19;100.00;92705.03;4895684;29;20053;-52
2022/11/16 01:13:49;;;;;;;14.50;8.57;;;;;;;7.22;100.00;92706.13;4894903;29;20041;-54
2022/11/16 01:16:17;;;;;;;19.38;8.85;;;;;;;7.25;100.00;92704.53;4894079;29;20606;-56
2022/11/16 01:18:51;;;;;;;15.27;8.13;;;;;;;7.11;100.00;92695.47;4894877;29;20111;-55
2022/11/16 01:21:18;;;;;;;15.00;8.10;;;;;;;7.21;100.00;92693.69;4894889;29;20055;-54
2022/11/16 01:23:45;;;;;;;14.35;7.80;;;;;;;7.20;100.00;92692.94;4894712;29;20552;-53
2022/11/16 01:26:12;;;;;;;15.02;8.18;;;;;;;7.24;100.00;92700.25;4894959;29;20079;-54
2022/11/16 01:28:39;;;;;;;13.75;8.15;;;;;;;7.22;100.00;92692.50;4894728;29;20058;-58
2022/11/16 01:31:06;;;;;;;15.68;8.15;;;;;;;7.23;100.00;92690.56;4894667;29;20490;-53
2022/11/16 01:33:33;;;;;;;14.43;8.43;;;;;;;7.17;100.00;92687.56;4878780;29;20181;-51
2022/11/16 01:36:00;;;;;;;14.35;8.45;;;;;;;7.19;100.00;92677.75;4894152;29;20041;-54
2022/11/16 01:38:27;;;;;;;14.02;8.15;;;;;;;7.14;100.00;92685.66;4894963;29;20568;-55
2022/11/16 01:40:55;;;;;;;13.98;7.85;;;;;;;7.10;100.00;92685.75;4897335;29;20054;-57
2022/11/16 01:43:23;;;;;;;14.52;7.60;;;;;;;7.16;100.00;92689.53;4894982;29;20057;-55
2022/11/16 01:45:50;;;;;;;12.27;7.27;;;;;;;7.02;100.00;92683.59;4894277;29;20053;-49
2022/11/16 01:48:26;;;;;;;13.32;7.68;;;;;;;6.90;100.00;92691.25;4877865;29;20095;-54
2022/11/16 01:50:56;;;;;;;13.68;8.07;;;;;;;6.93;100.00;92686.91;4877951;29;20556;-51
2022/11/16 01:53:23;;;;;;;15.55;8.50;;;;;;;6.84;100.00;92692.16;4894390;29;20048;-52
2022/11/16 01:55:51;;;;;;;14.95;8.38;;;;;;;6.85;100.00;92705.38;4894349;29;20087;-54
2022/11/16 01:58:21;;;;;;;15.57;8.33;;;;;;;6.88;100.00;92709.19;4894300;29;20066;-55
2022/11/16 02:00:48;;;;;;;14.95;7.75;;;;;;;6.81;100.00;92715.59;4893839;29;20534;-56
2022/11/16 02:03:19;;;;;;;14.55;7.75;;;;;;;6.81;100.00;92715.59;4894387;29;20057;-57
2022/11/16 02:06:14;;;;;;;12.25;7.05;;;;;;;6.91;100.00;92706.41;4894204;29;20051;-55
2022/11/16 02:11:55;;;;;;;12.10;6.67;;;;;;;6.84;100.00;92709.31;4894225;29;20059;-54
2022/11/16 02:14:43;;;;;;;12.45;6.97;;;;;;;6.79;100.00;92716.00;4894038;29;20044;-54
2022/11/16 02:17:24;;;;;;;13.00;7.35;;;;;;;6.85;100.00;92702.63;4891007;29;20406;-52
2022/11/16 02:20:28;;;;;;;12.98;7.30;;;;;;;6.87;100.00;92704.97;4881282;29;20055;-54
2022/11/16 02:23:25;;;;;;;10.13;6.00;;;;;;;6.98;100.00;92698.09;4893509;29;20048;-53
2022/11/16 02:26:07;;;;;;;8.93;5.23;;;;;;;7.10;100.00;92701.34;4893720;29;20104;-54
2022/11/16 02:29:01;;;;;;;8.60;5.03;;;;;;;7.13;100.00;92684.91;4894345;29;20057;-53
2022/11/16 02:31:36;;;;;;;10.23;4.82;;;;;;;7.17;100.00;92701.97;4893001;29;20165;-54
2022/11/16 02:34:06;;;;;;;8.30;4.55;;;;;;;7.24;100.00;92692.84;4892912;29;21423;-57
2022/11/16 02:36:34;;;;;;;7.25;4.10;;;;;;;7.29;100.00;92691.59;4894161;29;20041;-54
2022/11/16 02:39:09;;;;;;;7.73;3.93;;;;;;;7.33;100.00;92692.25;4895249;29;21118;-57
2022/11/16 02:41:40;;;;;;;7.63;4.30;;;;;;;7.36;100.00;92694.91;4895358;29;20041;-53
2022/11/16 02:44:15;;;;;;;7.88;3.85;;;;;;;7.38;100.00;92691.75;4892467;29;20330;-55
2022/11/16 02:46:47;;;;;;;6.40;3.30;;;;;;;7.38;100.00;92678.88;4893073;29;20060;-54
2022/11/16 02:49:17;;;;;;;6.53;2.70;;;;;;;7.42;100.00;92681.50;4893730;29;20057;-53
2022/11/16 02:51:46;;;;;;;5.47;2.67;;;;;;;7.46;100.00;92663.09;4893063;29;20064;-51
2022/11/16 02:54:18;;;;;;;5.13;2.50;;;;;;;7.48;100.00;92659.94;4893444;29;20049;-53
2022/11/16 02:57:33;;;;;;;6.32;2.60;;;;;;;7.49;100.00;92664.22;4893244;29;20048;-53
2022/11/16 03:00:01;;;;;;;5.75;3.20;;;;;;;7.47;100.00;92656.44;4835626;29;20052;-59
2022/11/16 03:02:45;;;;;;;5.80;3.00;;;;;;;7.52;100.00;92650.47;4893458;29;20056;-52
2022/11/16 03:05:30;;;;;;;6.87;3.27;;;;;;;7.48;100.00;92663.44;4892571;29;20568;-56
2022/11/16 03:08:30;;;;;;;6.68;3.40;;;;;;;7.48;100.00;92666.16;4892806;29;20044;-56
2022/11/16 03:13:49;;;;;;;7.95;4.13;;;;;;;7.40;100.00;92676.50;4892868;29;20059;-56
2022/11/16 03:16:25;;;;;;;7.10;3.97;;;;;;;7.43;100.00;92674.88;4891935;29;20045;-53
2022/11/16 03:18:54;;;;;;;7.97;4.40;;;;;;;7.44;100.00;92668.22;4885633;29;20421;-53
2022/11/16 03:21:27;;;;;;;7.47;4.25;;;;;;;7.42;100.00;92672.56;4892786;29;20061;-53
2022/11/16 03:23:53;;;;;;;8.15;4.53;;;;;;;7.42;100.00;92683.47;4892759;29;20525;-54
2022/11/16 03:26:25;;;;;;;7.13;4.20;;;;;;;7.43;100.00;92688.53;4876289;29;20048;-53
2022/11/16 03:29:20;;;;;;;8.15;4.72;;;;;;;7.40;100.00;92684.69;4886639;29;20080;-54
2022/11/16 03:31:54;;;;;;;9.20;5.10;;;;;;;7.45;100.00;92677.94;4878188;29;20044;-54
2022/11/16 03:34:28;;;;;;;8.13;5.20;;;;;;;7.44;100.00;92684.59;4892915;29;20059;-52
2022/11/16 03:36:57;;;;;;;8.85;4.90;;;;;;;7.47;100.00;92700.13;4892562;29;20413;-53
2022/11/16 03:39:30;;;;;;;8.77;4.88;;;;;;;7.51;100.00;92700.03;4897387;29;20176;-55
2022/11/16 03:42:00;;;;;;;10.20;5.40;;;;;;;7.49;100.00;92705.16;4892832;29;20049;-55
2022/11/16 03:44:27;;;;;;;9.70;5.47;;;;;;;7.51;100.00;92703.53;4892644;29;20053;-54
2022/11/16 03:46:54;;;;;;;9.65;5.53;;;;;;;7.52;100.00;92702.34;4892459;29;20045;-56
2022/11/16 03:49:22;;;;;;;8.68;4.72;;;;;;;7.55;100.00;92706.97;4892654;29;20565;-51
2022/11/16 03:51:50;;;;;;;7.80;4.50;;;;;;;7.60;100.00;92694.75;4892139;29;20044;-54
2022/11/16 03:54:16;;;;;;;9.05;5.68;;;;;;;7.60;100.00;92694.75;4892702;29;20076;-55
2022/11/16 03:56:43;;;;;;;9.70;5.40;;;;;;;7.58;100.00;92689.72;4892457;29;20108;-54
2022/11/16 03:59:09;;;;;;;7.95;4.78;;;;;;;7.59;100.00;92699.44;4892481;29;20492;-56
2022/11/16 04:01:36;;;;;;;8.15;4.90;;;;;;;7.58;100.00;92695.16;4892974;29;20123;-55
2022/11/16 04:24:10;;;;;;;7.85;4.57;;;;;;;7.62;100.00;92697.06;4891986;29;20083;-51
2022/11/16 04:26:14;;;;;;;7.28;4.07;;;;;;;7.63;100.00;92701.34;4878549;29;20686;-56
2022/11/16 04:28:42;;;;;;;7.97;4.63;;;;;;;7.60;100.00;92697.47;4872364;29;20053;-55
2022/11/16 04:39:24;;;;;;;9.98;4.90;;;;;;;7.55;100.00;92695.28;4891990;29;20107;-54
2022/11/16 04:47:21;;;;;;;6.32;3.88;;;;;;;7.53;100.00;92695.69;4878130;29;20973;-54
2022/11/16 04:49:48;;;;;;;6.70;3.80;;;;;;;7.50;100.00;92698.50;4895328;29;20049;-53
2022/11/16 04:52:14;;;;;;;6.25;3.72;;;;;;;7.47;100.00;92697.41;4895527;29;20107;-55
2022/11/16 04:54:41;;;;;;;6.85;3.80;;;;;;;7.45;100.00;92699.03;4895233;29;20108;-54
2022/11/16 04:57:08;;;;;;;7.57;3.90;;;;;;;7.39;100.00;92690.56;4879139;29;20494;-53
2022/11/16 04:59:34;;;;;;;7.18;3.95;;;;;;;7.37;100.00;92685.53;4879254;29;20056;-54
2022/11/16 05:02:07;;;;;;;8.17;4.37;;;;;;;7.38;100.00;92684.34;4878155;29;20045;-53
2022/11/16 05:04:38;;;;;;;6.78;3.60;;;;;;;7.34;100.00;92686.38;4880071;29;20059;-57
2022/11/16 05:07:09;;;;;;;7.47;3.97;;;;;;;7.33;100.00;92684.84;4894679;29;21761;-57
2022/11/16 05:09:46;;;;;;;6.03;3.38;;;;;;;7.32;100.00;92683.28;4895557;29;20044;-55
2022/11/16 05:12:16;;;;;;;7.03;3.80;;;;;;;7.28;100.00;92676.38;4894318;29;20216;-51
2022/11/16 05:14:43;;;;;;;6.87;3.93;;;;;;;7.28;100.00;92679.13;4895196;29;20057;-49
2022/11/16 05:17:11;;;;;;;8.50;4.55;;;;;;;7.25;100.00;92675.28;4894887;29;20052;-50
2022/11/16 05:22:24;;;;;;;8.27;4.20;;;;;;;7.28;100.00;92676.38;4895094;29;20112;-52
2022/11/16 05:24:51;;;;;;;9.10;4.70;;;;;;;7.29;100.00;92681.44;4894801;29;20105;-54
2022/11/16 05:27:19;;;;;;;6.37;3.60;;;;;;;7.23;100.00;92677.66;4895120;29;20044;-53
2022/11/16 05:29:50;;;;;;;5.25;3.13;;;;;;;7.26;100.00;92671.34;4894371;29;20048;-54
2022/11/16 05:32:18;;;;;;;7.35;4.00;;;;;;;7.18;100.00;92673.50;4894620;29;20041;-54
2022/11/16 05:34:45;;;;;;;5.90;3.22;;;;;;;7.22;100.00;92673.38;4894587;29;20056;-56
2022/11/16 05:37:12;;;;;;;6.10;3.70;;;;;;;7.27;100.00;92683.06;4894761;29;20052;-54
2022/11/16 05:39:39;;;;;;;5.87;3.20;;;;;;;7.24;100.00;92679.19;4892787;29;20048;-55
2022/11/16 05:42:07;;;;;;;13.35;7.63;;;;;;;7.18;100.00;92683.63;4894922;29;20063;-55
2022/11/16 05:44:33;;;;;;;9.02;4.30;;;;;;;7.15;100.00;92679.78;4894827;29;20052;-51
2022/11/16 05:47:00;;;;;;;8.32;4.40;;;;;;;7.15;100.00;92676.28;4894409;29;20389;-51
2022/11/16 05:49:27;;;;;;;8.40;5.47;;;;;;;7.10;100.00;92679.50;4894533;29;20053;-54
2022/11/16 05:51:54;;;;;;;9.67;6.00;;;;;;;7.04;100.00;92690.16;4894237;29;20040;-54
2022/11/16 05:54:23;;;;;;;8.85;5.40;;;;;;;6.99;100.00;92682.47;4894222;29;20052;-55
2022/11/16 05:56:50;;;;;;;7.55;4.45;;;;;;;6.97;100.00;92684.88;4894277;29;20057;-56
2022/11/16 05:59:19;;;;;;;16.85;10.85;;;;;;;6.99;100.00;92685.22;4877964;29;20053;-53
2022/11/16 06:01:46;;;;;;;11.35;7.47;;;;;;;6.91;100.00;92690.03;4893892;29;20082;-55
2022/11/16 06:04:14;;;;;;;16.23;10.47;;;;;;;7.01;100.00;92685.56;4894336;29;20052;-54
2022/11/16 06:06:40;;;;;;;9.43;5.65;;;;;;;6.98;100.00;92686.38;4894020;29;20053;-54
2022/11/16 06:09:08;;;;;;;5.65;2.88;;;;;;;6.93;100.00;92686.91;4893988;29;20053;-55
2022/11/16 06:11:36;;;;;;;13.20;7.60;;;;;;;6.90;100.00;92688.53;4894246;29;20044;-54
2022/11/16 06:14:04;;;;;;;227.55;78.60;;;;;;;6.94;100.00;92700.13;4893231;29;21798;-55
2022/11/16 06:16:30;;;;;;;586.63;191.53;;;;;;;6.93;100.00;92695.09;4893987;29;20056;-55
2022/11/16 06:18:58;;;;;;;335.45;108.05;;;;;;;6.90;100.00;92693.19;4893703;29;20062;-54
2022/11/16 06:21:25;;;;;;;37.78;14.63;;;;;;;6.87;100.00;92689.34;4893963;29;20388;-55
2022/11/16 06:23:52;;;;;;;28.23;11.52;;;;;;;6.81;100.00;92696.50;4893523;29;20506;-56
2022/11/16 06:26:19;;;;;;;12.52;6.18;;;;;;;6.74;100.00;92708.31;4893752;29;20454;-53
2022/11/16 06:28:46;;;;;;;61.10;23.77;;;;;;;6.74;100.00;92702.09;4893468;29;20063;-55
2022/11/16 06:31:12;;;;;;;181.95;66.10;;;;;;;6.72;100.00;92701.72;4893529;29;20040;-56
2022/11/16 06:33:39;;;;;;;106.88;42.65;;;;;;;6.63;100.00;92704.28;4893374;29;20048;-56
2022/11/16 06:36:06;;;;;;;39.55;17.55;;;;;;;6.37;100.00;92710.19;4894032;29;20067;-54
2022/11/16 06:38:33;;;;;;;22.88;10.85;;;;;;;6.38;100.00;92711.75;4893163;29;20140;-53
2022/11/16 06:41:00;;;;;;;11.37;5.87;;;;;;;6.33;100.00;92716.91;4895992;29;20045;-54
2022/11/16 06:43:27;;;;;;;7.93;3.88;;;;;;;6.17;100.00;92717.56;4893640;29;20059;-56
2022/11/16 06:45:55;;;;;;;9.52;4.15;;;;;;;6.22;100.00;92719.84;4893311;29;20041;-56
2022/11/16 06:48:22;;;;;;;6.60;3.55;;;;;;;6.08;100.00;92725.53;4893129;29;20048;-55
2022/11/16 06:50:50;;;;;;;8.75;4.00;;;;;;;6.05;100.00;92721.66;4893325;29;20060;-55
2022/11/16 06:53:18;;;;;;;6.47;3.30;;;;;;;5.80;100.00;92728.28;4893097;29;20049;-53
2022/11/16 06:55:45;;;;;;;6.07;3.03;;;;;;;5.84;100.00;92724.75;4892802;29;20052;-52
2022/11/16 06:58:11;;;;;;;6.13;2.83;;;;;;;5.84;100.00;92724.75;4891923;29;20049;-53
2022/11/16 07:00:38;;;;;;;6.38;2.83;;;;;;;5.75;100.00;92727.97;4891945;29;20048;-52
2022/11/16 07:03:05;;;;;;;6.25;2.95;;;;;;;5.80;100.00;92730.25;4892242;29;20064;-56
2022/11/16 07:05:32;;;;;;;8.47;4.10;;;;;;;5.82;100.00;92729.84;4892783;29;20055;-52
2022/11/16 07:07:59;;;;;;;6.55;3.00;;;;;;;5.79;100.00;92726.75;4892321;29;20044;-57
2022/11/16 07:10:25;;;;;;;6.68;3.50;;;;;;;5.85;100.00;92735.19;4892285;29;20052;-56
2022/11/16 07:12:52;;;;;;;6.13;3.40;;;;;;;5.84;100.00;92741.09;4890356;29;20045;-53
2022/11/16 07:15:19;;;;;;;11.63;5.40;;;;;;;5.83;100.00;92736.81;4863798;29;20056;-51
2022/11/16 07:17:46;;;;;;;6.67;3.50;;;;;;;5.82;100.00;92746.94;4892080;29;20056;-56
2022/11/16 07:20:13;;;;;;;8.80;4.53;;;;;;;5.95;100.00;92742.44;4876287;29;20103;-51
2022/11/16 07:22:39;;;;;;;15.50;9.80;;;;;;;5.78;100.00;92747.00;4892811;29;20449;-56
2022/11/16 07:25:07;;;;;;;15.18;10.13;;;;;;;6.23;100.00;92736.94;4892928;29;20053;-54
2022/11/16 07:27:33;;;;;;;15.35;10.73;;;;;;;6.48;100.00;92734.53;4893351;29;20115;-55
2022/11/16 07:30:00;;;;;;;12.97;6.97;;;;;;;6.72;100.00;92740.69;4860843;29;20053;-55
2022/11/16 07:32:29;;;;;;;15.50;8.98;;;;;;;8.68;100.00;92739.28;4879909;29;20048;-53
2022/11/16 07:34:57;;;;;;;12.95;8.20;;;;;;;9.70;94.60;92743.41;4892753;29;20056;-55
2022/11/16 07:37:25;;;;;;;11.88;7.43;;;;;;;10.55;90.48;92747.38;4892826;29;20495;-50
2022/11/16 07:39:52;;;;;;;11.90;8.00;;;;;;;8.88;94.17;92736.41;4900875;29;20052;-54
2022/11/16 07:42:18;;;;;;;15.27;9.03;;;;;;;9.24;94.95;92745.59;4898145;29;20120;-58
2022/11/16 07:44:45;;;;;;;13.13;8.38;;;;;;;8.73;96.25;92743.47;4892583;29;20048;-52
2022/11/16 07:47:12;;;;;;;13.68;7.22;;;;;;;6.99;100.00;92745.97;4892976;29;20044;-54
2022/11/16 07:49:38;;;;;;;13.88;6.85;;;;;;;7.19;100.00;92754.13;4892301;29;20099;-56
2022/11/16 07:52:09;;;;;;;11.55;6.97;;;;;;;7.45;100.00;92757.09;4893289;29;20103;-50
2022/11/16 07:54:35;;;;;;;9.47;6.00;;;;;;;7.52;100.00;92772.53;4892492;29;20057;-53
2022/11/16 07:57:02;;;;;;;13.63;7.78;;;;;;;7.64;100.00;92773.84;4875758;29;20115;-52
2022/11/16 07:59:29;;;;;;;13.27;8.10;;;;;;;7.64;100.00;92771.13;4892800;29;20059;-55
2022/11/16 08:01:57;;;;;;;11.75;7.18;;;;;;;7.63;100.00;92769.59;4892449;29;20108;-54
2022/11/16 08:04:24;;;;;;;11.55;6.20;;;;;;;7.40;100.00;92766.56;4875979;29;20048;-52
2022/11/16 08:06:51;;;;;;;13.47;6.20;;;;;;;7.57;100.00;92764.63;4892006;29;20062;-54
2022/11/16 08:09:18;;;;;;;10.35;5.40;;;;;;;7.49;100.00;92765.22;4892775;29;20037;-53
2022/11/16 08:11:46;;;;;;;10.20;5.07;;;;;;;7.50;100.00;92774.94;4875913;29;20049;-52
2022/11/16 08:14:12;;;;;;;11.30;6.40;;;;;;;7.82;100.00;92781.63;4893416;29;20040;-52
2022/11/16 08:16:39;;;;;;;9.88;5.85;;;;;;;7.64;100.00;92776.59;4895752;29;20076;-55
2022/11/16 08:19:06;;;;;;;10.60;5.37;;;;;;;9.66;94.25;92775.63;4896359;29;20048;-51
2022/11/16 08:21:32;;;;;;;8.13;4.00;;;;;;;12.16;78.89;92768.19;4896169;29;20072;-52
2022/11/16 08:23:59;;;;;;;9.88;5.90;;;;;;;15.10;66.87;92771.53;4895842;29;20052;-51
2022/11/16 08:26:26;;;;;;;11.30;5.53;;;;;;;16.02;62.69;92769.91;4894979;29;20048;-54
2022/11/16 08:28:55;;;;;;;9.98;4.90;;;;;;;18.17;56.16;92770.50;4895978;29;20060;-53
2022/11/16 08:31:25;;;;;;;7.10;3.23;;;;;;;18.79;52.67;92770.94;4896076;29;20067;-57
2022/11/16 08:33:52;;;;;;;6.53;3.35;;;;;;;18.94;50.47;92770.78;4895847;29;20060;-56
2022/11/16 08:36:19;;;;;;;5.57;2.60;;;;;;;20.07;48.32;92766.31;4896124;29;20060;-60
2022/11/16 08:38:47;;;;;;;4.40;1.98;;;;;;;20.97;45.20;92759.13;4896019;29;20199;-56
2022/11/16 08:41:15;;;;;;;3.97;1.50;;;;;;;21.00;42.68;92756.09;4894177;29;20107;-54
2022/11/16 08:43:43;;;;;;;4.80;1.37;;;;;;;18.67;46.54;92763.75;4895716;29;20057;-54
2022/11/16 08:46:10;;;;;;;3.70;1.10;;;;;;;18.63;48.34;92761.22;4896104;29;20045;-55
2022/11/16 08:48:36;;;;;;;3.05;1.00;;;;;;;20.33;45.06;92771.63;4895684;29;20053;-55
2022/11/16 08:51:09;;;;;;;5.25;1.45;;;;;;;21.98;41.39;92769.88;4896190;29;20123;-57
2022/11/16 08:53:46;;;;;;;4.38;1.30;;;;;;;19.96;42.98;92777.47;4884321;29;20056;-58
2022/11/16 08:56:15;;;;;;;3.00;1.10;;;;;;;21.07;42.51;92766.72;4879598;29;20045;-59
2022/11/16 08:58:45;;;;;;;3.28;1.30;;;;;;;16.57;50.45;92774.00;4895249;29;20049;-58
2022/11/16 09:01:17;;;;;;;3.63;1.50;;;;;;;18.76;46.41;92767.09;4895680;29;20049;-56
2022/11/16 09:03:45;;;;;;;3.03;1.13;;;;;;;20.65;43.45;92767.84;4894931;29;20385;-58
2022/11/16 09:06:12;;;;;;;4.28;1.20;;;;;;;21.39;40.30;92776.75;4895894;29;20088;-60
2022/11/16 09:08:41;;;;;;;2.90;0.90;;;;;;;20.88;40.10;92765.75;4894959;29;20049;-59
2022/11/16 09:11:11;;;;;;;3.15;1.10;;;;;;;19.41;44.57;92782.34;4895513;29;20063;-59
2022/11/16 09:13:37;;;;;;;2.33;1.10;;;;;;;19.95;43.22;92776.69;4894849;29;20049;-59
2022/11/16 09:16:04;;;;;;;4.45;1.00;;;;;;;21.91;39.66;92770.41;4895637;29;20095;-59
2022/11/16 09:18:31;;;;;;;2.65;0.93;;;;;;;23.82;36.22;92772.69;4895359;29;20071;-58
2022/11/16 09:20:58;;;;;;;3.37;1.50;;;;;;;23.52;35.74;92760.34;4895076;29;20051;-58
2022/11/16 09:23:25;;;;;;;2.80;0.90;;;;;;;22.72;36.85;92770.09;4895345;29;20596;-58
2022/11/16 09:25:53;;;;;;;3.85;0.90;;;;;;;21.74;37.92;92776.88;4892959;29;20051;-58
2022/11/16 09:28:21;;;;;;;4.15;1.17;;;;;;;23.47;35.51;92768.81;4895419;29;20052;-57
2022/11/16 09:30:50;;;;;;;2.80;0.90;;;;;;;24.82;33.37;92766.84;4894961;29;20047;-58
2022/11/16 09:33:17;;;;;;;3.00;0.80;;;;;;;24.37;33.21;92772.41;4895145;29;20071;-58
2022/11/16 09:35:44;;;;;;;2.40;1.08;;;;;;;23.79;34.04;92768.91;4894328;29;20693;-59
2022/11/16 09:38:11;;;;;;;2.75;0.80;;;;;;;24.15;33.73;92773.50;4895540;29;20123;-57
2022/11/16 09:40:47;;;;;;;2.60;0.90;;;;;;;24.31;32.98;92780.94;4895971;29;20049;-57
2022/11/16 09:43:40;;;;;;;3.63;0.80;;;;;;;21.62;37.40;92781.00;4895180;29;20099;-58
2022/11/16 09:46:36;;;;;;;3.90;0.90;;;;;;;20.26;39.70;92783.31;4888238;29;20958;-58
2022/11/16 09:49:12;;;;;;;2.83;0.90;;;;;;;20.61;38.39;92782.03;4893940;29;20111;-58
2022/11/16 09:51:47;;;;;;;21.50;6.60;;;;;;;19.64;39.23;92785.19;4894518;29;20059;-57
2022/11/16 09:54:19;;;;;;;3.55;0.80;;;;;;;22.64;34.52;92781.09;4877992;29;20084;-58
2022/11/16 09:56:50;;;;;;;3.40;0.60;;;;;;;23.62;34.09;92771.91;4894374;29;20052;-56
2022/11/16 09:59:24;;;;;;;2.37;0.50;;;;;;;21.49;34.55;92778.00;4894757;29;20088;-58
2022/11/16 10:02:02;;;;;;;6.25;0.82;;;;;;;18.66;41.20;92779.69;4894218;29;20041;-58
2022/11/16 10:05:11;;;;;;;3.47;0.60;;;;;;;18.54;41.27;92775.31;4894720;29;20045;-55
2022/11/16 10:07:45;;;;;;;3.13;0.80;;;;;;;19.86;39.21;92781.72;4873978;29;20733;-57
2022/11/16 10:10:22;;;;;;;5.25;0.60;;;;;;;21.08;36.41;92773.81;4894778;29;20056;-59
2022/11/16 10:13:03;;;;;;;3.77;0.40;;;;;;;19.45;37.90;92777.28;4894273;29;20048;-59
2022/11/16 10:16:04;;;;;;;2.58;0.47;;;;;;;21.69;34.30;92777.66;4894145;29;20081;-58
2022/11/16 10:18:43;;;;;;;1.95;0.40;;;;;;;20.46;35.09;92764.78;4864297;29;20516;-57
2022/11/16 10:21:38;;;;;;;3.65;0.43;;;;;;;19.50;36.63;92775.81;4893675;29;20049;-58
2022/11/16 10:24:26;;;;;;;2.22;0.50;;;;;;;19.56;38.08;92766.22;4893536;29;20558;-59
2022/11/16 10:26:58;;;;;;;3.03;0.60;;;;;;;16.62;42.63;92778.84;4894220;29;20048;-56
2022/11/16 10:29:47;;;;;;;3.17;0.65;;;;;;;15.96;44.75;92769.81;4894142;29;20045;-57
2022/11/16 10:32:29;;;;;;;3.28;0.60;;;;;;;15.60;45.51;92775.72;4893218;29;20714;-56
2022/11/16 10:35:04;;;;;;;3.47;0.60;;;;;;;15.25;46.95;92774.34;4893787;29;20052;-53
2022/11/16 10:37:35;;;;;;;2.97;0.60;;;;;;;14.18;49.29;92775.59;4879069;29;20041;-55
2022/11/16 10:40:26;;;;;;;3.13;0.50;;;;;;;13.74;50.32;92767.00;4903004;29;21579;-56
2022/11/16 10:43:02;;;;;;;3.55;0.50;;;;;;;14.11;49.96;92770.41;4880147;29;20103;-54
2022/11/16 10:45:44;;;;;;;3.10;0.60;;;;;;;13.54;51.41;92768.28;4893760;29;20061;-56
2022/11/16 10:48:38;;;;;;;2.97;0.50;;;;;;;13.41;51.97;92759.44;4893311;29;20623;-54
2022/11/16 10:51:07;;;;;;;3.88;0.93;;;;;;;14.55;49.34;92756.06;4893072;29;21579;-56
2022/11/16 10:53:45;;;;;;;5.10;0.67;;;;;;;16.85;45.80;92751.47;4893780;29;20053;-54
2022/11/16 10:56:31;;;;;;;2.80;0.70;;;;;;;17.66;42.22;92739.50;4893082;29;21292;-54
2022/11/16 10:59:01;;;;;;;2.75;0.63;;;;;;;15.74;45.88;92753.59;4893599;29;20045;-54
2022/11/16 11:01:37;;;;;;;4.25;0.85;;;;;;;16.07;45.64;92747.06;4893087;29;20487;-56
2022/11/16 11:04:25;;;;;;;4.43;1.00;;;;;;;16.15;44.46;92750.97;4892850;29;20960;-58
2022/11/16 11:07:01;;;;;;;3.77;0.97;;;;;;;14.67;46.39;92756.31;4893129;29;20055;-53
2022/11/16 11:09:29;;;;;;;3.45;0.60;;;;;;;15.31;46.70;92752.31;4892740;29;20052;-59
2022/11/16 11:15:05;;;;;;;3.55;0.90;;;;;;;18.30;39.70;92734.75;4892244;29;20705;-58
2022/11/16 11:17:34;;;;;;;4.97;0.90;;;;;;;19.78;37.03;92736.94;4893225;29;20049;-58
2022/11/16 11:20:04;;;;;;;3.17;0.50;;;;;;;20.25;35.56;92733.66;4893038;29;20123;-58
2022/11/16 11:22:33;;;;;;;3.67;0.60;;;;;;;20.58;34.26;92732.09;4893509;29;20065;-58
2022/11/16 11:25:02;;;;;;;3.47;0.90;;;;;;;20.76;35.44;92726.00;4892887;29;20057;-59
2022/11/16 11:27:33;;;;;;;3.58;0.60;;;;;;;21.07;33.52;92718.56;4876464;29;20048;-59
2022/11/16 11:30:00;;;;;;;4.35;0.50;;;;;;;20.45;34.54;92725.03;4892634;29;20045;-58
2022/11/16 11:32:38;;;;;;;2.23;0.40;;;;;;;19.54;35.66;92712.31;4876422;29;20058;-56
2022/11/16 11:35:20;;;;;;;2.58;0.45;;;;;;;20.60;34.23;92719.19;4875739;29;20799;-58
2022/11/16 11:37:52;;;;;;;4.75;0.70;;;;;;;21.04;34.22;92719.56;4892604;29;20047;-58
2022/11/16 11:40:26;;;;;;;2.95;0.70;;;;;;;21.52;33.36;92713.53;4903735;29;20103;-59
2022/11/16 11:42:56;;;;;;;2.90;0.70;;;;;;;20.96;34.37;92713.75;4890388;29;20052;-59
2022/11/16 11:45:34;;;;;;;4.23;1.10;;;;;;;19.52;36.47;92710.03;4893523;29;20055;-57
2022/11/16 11:48:13;;;;;;;4.13;1.23;;;;;;;18.76;37.78;92708.75;4889220;29;20048;-53
2022/11/16 11:50:53;;;;;;;3.47;0.80;;;;;;;19.26;37.06;92723.38;4892066;29;20056;-57
2022/11/16 11:53:22;;;;;;;3.10;0.40;;;;;;;18.77;37.87;92715.06;4893177;29;20044;-57
2022/11/16 11:55:58;;;;;;;3.83;0.85;;;;;;;17.77;40.77;92724.97;4892278;29;20048;-55
2022/11/16 11:58:29;;;;;;;4.60;0.53;;;;;;;16.70;41.63;92724.56;4893003;29;20057;-56
2022/11/16 12:01:33;;;;;;;4.10;1.20;;;;;;;16.10;43.70;92721.22;4892478;29;20056;-56
2022/11/16 12:04:06;;;;;;;4.18;0.93;;;;;;;16.13;43.96;92723.03;4892562;29;20040;-52
2022/11/16 12:07:26;;;;;;;2.35;0.70;;;;;;;15.83;44.73;92716.78;4892588;29;20060;-57
2022/11/16 12:10:06;;;;;;;4.28;1.20;;;;;;;15.29;46.56;92721.59;4818012;29;20353;-55
2022/11/16 12:12:48;;;;;;;3.47;1.00;;;;;;;14.68;48.99;92717.19;4876057;29;20049;-53
2022/11/16 12:15:23;;;;;;;3.88;0.75;;;;;;;13.87;52.03;92723.47;4892021;29;20809;-54
2022/11/16 12:18:17;;;;;;;2.45;0.60;;;;;;;13.84;50.31;92720.84;4875094;29;20053;-53
2022/11/16 12:20:54;;;;;;;3.55;0.73;;;;;;;13.91;50.48;92723.28;4891822;29;20055;-55
2022/11/16 12:23:21;;;;;;;4.68;0.63;;;;;;;13.63;51.01;92717.88;4892984;29;20052;-56
2022/11/16 12:26:00;;;;;;;3.37;0.70;;;;;;;13.39;52.00;92715.78;4892203;29;20055;-54
2022/11/16 12:28:48;;;;;;;4.90;0.70;;;;;;;14.59;48.84;92692.44;4892688;29;20123;-56
2022/11/16 12:31:49;;;;;;;3.00;0.75;;;;;;;14.32;49.38;92698.84;4891572;29;21505;-55
2022/11/16 12:34:37;;;;;;;3.90;0.90;;;;;;;14.86;48.31;92698.97;4891785;29;20052;-53
2022/11/16 12:37:22;;;;;;;3.28;0.88;;;;;;;14.29;49.88;92694.28;4891942;29;21436;-53
2022/11/16 12:40:27;;;;;;;4.20;1.00;;;;;;;13.67;51.44;92693.66;4899982;29;20417;-54